Time;durP1;ratioP1;P1;durP2;ratioP2;P2;SDS_P1;SDS_P2;PMS_P1;PMS_P2;Temp;Humidity;BMP_temperature;BMP_pressure;BME280_temperature;BME280_humidity;BME280_pressure;Samples;Min_cycle;Max_cycle;Signal;HPM_P1;HPM_P2
2023/07/11 00:03:14;;;;;;;;;;;;;;;25.18;45.05;96050.25;10389582;28;2074;-62
2023/07/11 00:08:14;;;;;;;;;;;;;;;25.19;45.00;96043.84;10395306;28;2077;-62
2023/07/11 00:13:14;;;;;;;;;;;;;;;25.19;45.20;96051.78;10397382;28;2024;-62
2023/07/11 00:18:14;;;;;;;;;;;;;;;25.19;45.29;96053.66;10395296;28;2021;-62
2023/07/11 00:23:15;;;;;;;;;;;;;;;25.18;45.27;96058.19;10403492;28;1965;-62
2023/07/11 00:28:15;;;;;;;;;;;;;;;25.17;45.45;96050.50;10398871;28;2228;-62
2023/07/11 00:33:15;;;;;;;;;;;;;;;25.16;45.32;96047.09;10395323;28;2140;-62
2023/07/11 00:38:15;;;;;;;;;;;;;;;25.16;45.34;96048.97;10398648;28;2321;-62
2023/07/11 00:43:16;;;;;;;;;;;;;;;25.14;45.47;96043.94;10395360;28;4549;-62
2023/07/11 00:48:17;;;;;;;;;;;;;;;25.15;45.47;96036.75;10393890;28;2036;-62
2023/07/11 00:53:17;;;;;;;;;;;;;;;25.12;45.48;96035.50;10394445;28;2013;-62
2023/07/11 00:58:17;;;;;;;;;;;;;;;25.13;45.49;96034.41;10395807;28;2031;-62
2023/07/11 01:03:18;;;;;;;;;;;;;;;25.11;45.57;96017.22;10396003;28;2053;-62
2023/07/11 01:08:18;;;;;;;;;;;;;;;25.12;45.69;96022.25;10398350;28;2080;-62
2023/07/11 01:13:18;;;;;;;;;;;;;;;25.11;46.08;96019.84;10397216;28;1987;-60
2023/07/11 01:18:18;;;;;;;;;;;;;;;25.09;45.96;96012.22;10395880;28;1975;-63
2023/07/11 01:23:20;;;;;;;;;;;;;;;25.09;46.07;96011.41;10393803;28;1972;-62
2023/07/11 01:28:20;;;;;;;;;;;;;;;25.07;45.86;96009.06;10399145;28;1980;-61
2023/07/11 01:33:24;;;;;;;;;;;;;;;25.06;45.94;96018.09;10391603;28;2318;-61
2023/07/11 01:38:24;;;;;;;;;;;;;;;25.06;46.21;96001.41;10401403;28;2202;-61
2023/07/11 01:43:25;;;;;;;;;;;;;;;25.03;46.17;95995.63;10396833;28;4328;-61
2023/07/11 01:48:25;;;;;;;;;;;;;;;25.01;46.39;95995.13;10384257;28;2210;-61
2023/07/11 01:53:26;;;;;;;;;;;;;;;25.00;46.27;95985.59;10402924;28;1968;-62
2023/07/11 01:58:26;;;;;;;;;;;;;;;24.97;46.42;95983.53;10403789;28;1982;-61
2023/07/11 02:03:26;;;;;;;;;;;;;;;24.97;46.34;95982.75;10401304;28;2112;-61
2023/07/11 02:08:27;;;;;;;;;;;;;;;24.96;46.31;95976.66;10403295;28;2057;-61
2023/07/11 02:13:27;;;;;;;;;;;;;;;24.96;46.55;95973.19;10407265;28;2043;-59
2023/07/11 02:18:27;;;;;;;;;;;;;;;24.93;46.76;95973.81;10404173;28;1994;-60
2023/07/11 02:23:27;;;;;;;;;;;;;;;24.92;46.54;95969.56;10400844;28;2030;-60
2023/07/11 02:28:28;;;;;;;;;;;;;;;24.92;46.80;95964.28;10401512;28;2314;-60
2023/07/11 02:33:28;;;;;;;;;;;;;;;24.92;46.78;95964.28;10399071;28;2165;-60
2023/07/11 02:38:28;;;;;;;;;;;;;;;24.92;47.16;95964.28;10402418;28;2271;-60
2023/07/11 02:43:28;;;;;;;;;;;;;;;24.90;47.23;95958.47;10399311;28;4642;-60
2023/07/11 02:48:29;;;;;;;;;;;;;;;24.89;47.13;95954.28;10400221;28;2267;-60
2023/07/11 02:53:29;;;;;;;;;;;;;;;24.87;47.29;95949.25;10398717;28;1955;-60
2023/07/11 02:58:29;;;;;;;;;;;;;;;24.89;47.09;95943.66;10392651;28;2336;-61
2023/07/11 03:03:29;;;;;;;;;;;;;;;24.85;47.45;95932.84;10398542;28;2284;-61
2023/07/11 03:08:30;;;;;;;;;;;;;;;24.84;47.38;95928.63;10399343;28;1960;-61
2023/07/11 03:13:31;;;;;;;;;;;;;;;24.83;47.55;95934.25;10398793;28;2162;-61
2023/07/11 03:18:31;;;;;;;;;;;;;;;24.80;47.57;95919.72;10398894;28;2019;-61
2023/07/11 03:23:32;;;;;;;;;;;;;;;24.79;47.74;95920.00;10378261;28;2459;-61
2023/07/11 03:28:32;;;;;;;;;;;;;;;24.76;47.65;95921.38;10401442;28;2055;-61
2023/07/11 03:33:32;;;;;;;;;;;;;;;24.74;47.76;95915.59;10398037;28;2161;-61
2023/07/11 03:38:32;;;;;;;;;;;;;;;24.75;47.67;95908.44;10400789;28;1996;-61
2023/07/11 03:43:33;;;;;;;;;;;;;;;24.73;47.99;95905.25;10400039;28;2009;-60
2023/07/11 03:48:33;;;;;;;;;;;;;;;24.71;47.86;95900.22;10399349;28;2003;-61
2023/07/11 03:53:33;;;;;;;;;;;;;;;24.73;47.92;95902.59;10394764;28;2018;-61
2023/07/11 03:58:34;;;;;;;;;;;;;;;24.73;48.03;95897.31;10392446;28;1957;-61
2023/07/11 04:03:34;;;;;;;;;;;;;;;24.73;48.09;95897.31;10391194;28;1997;-61
2023/07/11 04:08:34;;;;;;;;;;;;;;;24.72;48.09;95898.38;10398535;28;1997;-61
2023/07/11 04:13:34;;;;;;;;;;;;;;;24.72;48.10;95895.72;10400266;28;2345;-61
2023/07/11 04:18:35;;;;;;;;;;;;;;;24.73;48.20;95897.31;10395375;28;2100;-61
2023/07/11 04:23:35;;;;;;;;;;;;;;;24.73;48.29;95895.44;10398082;28;2235;-61
2023/07/11 04:28:35;;;;;;;;;;;;;;;24.75;48.05;95900.47;10397561;28;2062;-59
2023/07/11 04:33:35;;;;;;;;;;;;;;;24.75;48.37;95892.53;10394504;28;2102;-60
2023/07/11 04:38:36;;;;;;;;;;;;;;;24.76;48.34;95896.72;10401061;28;3788;-61
2023/07/11 04:43:36;;;;;;;;;;;;;;;24.76;48.29;95905.47;10399189;28;4533;-61
2023/07/11 04:48:37;;;;;;;;;;;;;;;24.78;48.39;95905.97;10400777;28;2101;-61
2023/07/11 04:53:37;;;;;;;;;;;;;;;24.79;48.33;95899.56;10397038;28;1982;-61
2023/07/11 04:58:37;;;;;;;;;;;;;;;24.79;48.19;95904.09;10389754;28;2118;-61
2023/07/11 05:03:37;;;;;;;;;;;;;;;24.80;48.29;95897.69;10396546;28;2092;-61
2023/07/11 05:08:41;;;;;;;;;;;;;;;24.80;48.18;95893.19;10398288;28;2050;-61
2023/07/11 05:13:41;;;;;;;;;;;;;;;24.81;47.84;95899.28;10396418;28;2004;-61
2023/07/11 05:18:42;;;;;;;;;;;;;;;24.79;47.78;95891.59;10397031;28;2554;-61
2023/07/11 05:23:42;;;;;;;;;;;;;;;24.77;47.33;95888.47;10405764;28;2090;-61
2023/07/11 05:28:42;;;;;;;;;;;;;;;24.78;47.13;95892.72;10403538;28;2021;-61
2023/07/11 05:33:43;;;;;;;;;;;;;;;24.75;46.89;95895.94;10405486;28;2035;-64
2023/07/11 05:38:43;;;;;;;;;;;;;;;24.75;46.83;95897.81;10407599;28;2023;-60
2023/07/11 05:43:43;;;;;;;;;;;;;;;24.71;46.69;95894.16;10404073;28;4508;-62
2023/07/11 05:48:44;;;;;;;;;;;;;;;24.73;46.31;95900.75;10398973;28;2049;-64
2023/07/11 05:53:44;;;;;;;;;;;;;;;24.80;46.60;95903.78;10398368;28;2033;-65
2023/07/11 05:58:45;;;;;;;;;;;;;;;24.85;46.84;95892.31;10403176;28;2079;-66
2023/07/11 06:03:48;;;;;;;;;;;;;;;24.89;46.94;95885.31;10402079;28;2051;-65
2023/07/11 06:08:48;;;;;;;;;;;;;;;24.95;46.98;95890.22;10397533;28;2122;-64
2023/07/11 06:13:48;;;;;;;;;;;;;;;24.99;46.87;95880.59;10395926;28;2081;-66
2023/07/11 06:18:51;;;;;;;;;;;;;;;25.03;47.12;95878.13;10396403;28;2277;-67
2023/07/11 06:23:52;;;;;;;;;;;;;;;25.06;46.86;95880.16;10398576;28;2008;-67
2023/07/11 06:28:52;;;;;;;;;;;;;;;25.09;46.97;95884.88;10390450;28;1997;-67
2023/07/11 06:33:52;;;;;;;;;;;;;;;25.12;47.08;95873.69;10393583;28;1947;-67
2023/07/11 06:38:52;;;;;;;;;;;;;;;25.15;47.25;95878.38;10394857;28;1890;-66
2023/07/11 06:43:53;;;;;;;;;;;;;;;25.17;47.25;95881.53;10391153;28;4534;-67
2023/07/11 06:48:53;;;;;;;;;;;;;;;25.22;47.43;95884.06;10381931;28;1975;-66
2023/07/11 06:53:54;;;;;;;;;;;;;;;25.23;47.45;95880.31;10386700;28;1910;-65
2023/07/11 06:58:54;;;;;;;;;;;;;;;25.24;47.40;95886.41;10385699;28;1957;-63
2023/07/11 07:03:54;;;;;;;;;;;;;;;25.25;47.58;95878.16;10386631;28;1917;-66
2023/07/11 07:08:55;;;;;;;;;;;;;;;25.28;47.60;95876.78;10385529;28;2368;-66
2023/07/11 07:13:55;;;;;;;;;;;;;;;25.29;47.44;95868.50;10384603;28;2315;-65
2023/07/11 07:18:55;;;;;;;;;;;;;;;25.30;47.53;95872.75;10383240;28;2023;-66
2023/07/11 07:23:55;;;;;;;;;;;;;;;25.32;47.45;95867.13;10384146;28;2211;-68
2023/07/11 07:28:56;;;;;;;;;;;;;;;25.33;47.62;95864.16;10383802;28;2006;-67
2023/07/11 07:33:56;;;;;;;;;;;;;;;25.32;47.32;95862.59;10385466;28;1912;-67
2023/07/11 07:38:56;;;;;;;;;;;;;;;25.35;47.50;95864.66;10385241;28;1933;-63
2023/07/11 07:43:57;;;;;;;;;;;;;;;25.38;47.56;95863.28;10387384;28;1838;-66
2023/07/11 07:48:57;;;;;;;;;;;;;;;25.38;47.39;95858.75;10383962;28;2029;-65
2023/07/11 07:53:57;;;;;;;;;;;;;;;25.38;47.52;95856.09;10384448;28;1953;-67
2023/07/11 07:58:58;;;;;;;;;;;;;;;25.40;47.54;95850.47;10380299;28;2032;-63
2023/07/11 08:03:58;;;;;;;;;;;;;;;25.42;47.69;95857.09;10384829;28;1897;-64
2023/07/11 08:08:58;;;;;;;;;;;;;;;25.44;47.54;95849.63;10381150;28;2414;-64
2023/07/11 08:13:58;;;;;;;;;;;;;;;25.45;47.61;95840.56;10380970;28;1960;-64
2023/07/11 08:18:59;;;;;;;;;;;;;;;25.46;47.68;95839.47;10379520;28;2259;-65
2023/07/11 08:24:00;;;;;;;;;;;;;;;25.47;47.65;95838.38;10385498;28;1955;-64
2023/07/11 08:29:00;;;;;;;;;;;;;;;25.46;47.50;95823.56;10381961;28;2087;-63
2023/07/11 08:34:00;;;;;;;;;;;;;;;25.49;47.66;95819.53;10384077;28;2086;-65
2023/07/11 08:39:01;;;;;;;;;;;;;;;25.50;47.56;95821.88;10383652;28;1962;-63
2023/07/11 08:44:03;;;;;;;;;;;;;;;25.51;47.94;95823.41;10392008;28;4475;-63
2023/07/11 08:49:03;;;;;;;;;;;;;;;25.53;47.77;95829.19;10368369;28;2113;-61
2023/07/11 08:54:11;;;;;;;;;;;;;;;25.52;47.82;95809.06;10367106;28;2011;-61
2023/07/11 08:59:22;;;;;;;;;;;;;;;25.55;47.93;95813.00;10359530;28;1877;-65
2023/07/11 09:04:22;;;;;;;;;;;;;;;25.56;47.76;95804.72;10391503;28;2588;-65
2023/07/11 09:09:23;;;;;;;;;;;;;;;25.59;47.81;95808.66;10390128;28;1923;-66
2023/07/11 09:14:26;;;;;;;;;;;;;;;25.58;47.83;95799.09;10392392;28;1924;-64
2023/07/11 09:19:45;;;;;;;;;;;;;;;25.60;47.90;95794.28;10374947;28;1966;-63
2023/07/11 09:24:45;;;;;;;;;;;;;;;25.61;47.96;95790.53;10390919;28;1890;-64
2023/07/11 09:29:46;;;;;;;;;;;;;;;25.61;47.98;95780.72;10392137;28;2532;-63
2023/07/11 09:34:49;;;;;;;;;;;;;;;25.62;47.87;95784.91;10375426;28;2068;-64
2023/07/11 09:39:52;;;;;;;;;;;;;;;25.63;48.05;95767.91;10402772;28;4675;-64
2023/07/11 09:44:59;;;;;;;;;;;;;;;25.65;47.99;95764.94;10394295;28;2048;-63
2023/07/11 09:49:59;;;;;;;;;;;;;;;25.66;48.16;95767.28;10393096;28;2274;-64
2023/07/11 09:55:00;;;;;;;;;;;;;;;25.66;48.12;95761.97;10390486;28;1978;-63
2023/07/11 10:00:00;;;;;;;;;;;;;;;25.67;48.08;95758.25;10359251;28;1880;-65
2023/07/11 10:05:01;;;;;;;;;;;;;;;25.68;48.29;95764.31;10372193;28;1943;-65
2023/07/11 10:10:02;;;;;;;;;;;;;;;25.71;48.35;95755.75;10385880;28;1990;-62
2023/07/11 10:15:04;;;;;;;;;;;;;;;25.72;48.10;95752.00;10382649;28;2193;-61
2023/07/11 10:20:06;;;;;;;;;;;;;;;25.74;48.29;95752.47;10367351;28;1898;-62
2023/07/11 10:25:19;;;;;;;;;;;;;;;25.76;48.44;95740.47;10392343;28;1964;-64
2023/07/11 10:30:20;;;;;;;;;;;;;;;25.77;48.71;95726.13;10391442;28;1902;-67
2023/07/11 10:35:20;;;;;;;;;;;;;;;25.77;48.65;95720.81;10375782;28;1931;-63
2023/07/11 10:40:28;;;;;;;;;;;;;;;25.79;48.75;95720.50;10386201;28;1991;-63
2023/07/11 10:45:28;;;;;;;;;;;;;;;25.79;48.72;95700.03;10374793;28;1898;-63
2023/07/11 10:50:30;;;;;;;;;;;;;;;25.81;48.83;95697.88;10400830;28;1977;-63
2023/07/11 10:55:32;;;;;;;;;;;;;;;25.80;48.72;95687.56;10400410;28;2225;-66
2023/07/11 11:00:41;;;;;;;;;;;;;;;25.83;48.78;95684.28;10375930;28;1956;-65
2023/07/11 11:05:44;;;;;;;;;;;;;;;25.86;49.02;95677.56;10377494;28;2258;-65
2023/07/11 11:10:59;;;;;;;;;;;;;;;25.86;48.94;95674.91;10398614;28;2080;-66
2023/07/11 11:16:03;;;;;;;;;;;;;;;25.86;48.95;95661.63;10394358;28;1968;-71
2023/07/11 11:21:12;;;;;;;;;;;;;;;25.87;48.76;95652.56;10395685;28;1874;-65
2023/07/11 11:26:16;;;;;;;;;;;;;;;25.88;48.98;95640.84;10392257;28;1974;-65
2023/07/11 11:31:21;;;;;;;;;;;;;;;25.89;49.14;95634.44;10377360;28;2015;-63
2023/07/11 11:36:28;;;;;;;;;;;;;;;25.91;49.09;95642.88;10376787;28;2014;-63
2023/07/11 11:41:35;;;;;;;;;;;;;;;25.92;48.99;95631.19;10404268;28;4638;-64
2023/07/11 11:46:35;;;;;;;;;;;;;;;25.92;49.06;95625.88;10380843;28;1956;-64
2023/07/11 11:51:36;;;;;;;;;;;;;;;25.93;48.99;95627.41;10377948;28;2318;-63
2023/07/11 11:56:36;;;;;;;;;;;;;;;25.94;49.12;95613.84;10386881;28;1957;-65
2023/07/11 12:01:38;;;;;;;;;;;;;;;25.96;49.23;95613.53;10365092;28;1965;-65
2023/07/11 12:06:40;;;;;;;;;;;;;;;25.98;49.13;95611.34;10386080;28;1930;-64
2023/07/11 12:11:59;;;;;;;;;;;;;;;25.98;49.12;95608.69;10366434;28;1977;-64
2023/07/11 12:16:59;;;;;;;;;;;;;;;25.99;49.16;95605.72;10384189;28;1999;-64
2023/07/11 12:22:05;;;;;;;;;;;;;;;26.01;49.33;95600.13;10366493;28;2018;-66
2023/07/11 12:27:08;;;;;;;;;;;;;;;26.01;49.33;95584.19;10381461;28;2196;-63
2023/07/11 12:32:27;;;;;;;;;;;;;;;26.02;49.45;95583.84;10383003;28;1973;-68
2023/07/11 12:37:28;;;;;;;;;;;;;;;26.03;49.40;95568.72;10382959;28;1906;-63
2023/07/11 12:42:31;;;;;;;;;;;;;;;26.04;49.46;95571.03;10382214;28;2029;-63
2023/07/11 12:47:31;;;;;;;;;;;;;;;26.05;49.57;95559.31;10383563;28;2215;-64
2023/07/11 12:52:31;;;;;;;;;;;;;;;26.07;49.63;95554.50;10366575;28;2044;-64
2023/07/11 12:57:32;;;;;;;;;;;;;;;26.08;49.67;95540.13;10381934;28;1968;-65
2023/07/11 13:02:32;;;;;;;;;;;;;;;26.10;49.97;95532.63;10361539;28;1889;-62
2023/07/11 13:07:32;;;;;;;;;;;;;;;26.13;49.71;95531.22;10381027;28;1947;-65
2023/07/11 13:12:36;;;;;;;;;;;;;;;26.11;49.48;95518.25;10378265;28;1922;-66
2023/07/11 13:17:36;;;;;;;;;;;;;;;26.11;49.59;95523.56;10379054;28;1915;-68
2023/07/11 13:22:38;;;;;;;;;;;;;;;26.11;49.48;95523.56;10363260;28;1930;-67
2023/07/11 13:27:38;;;;;;;;;;;;;;;26.11;49.41;95526.22;10358609;28;1900;-67
2023/07/11 13:32:39;;;;;;;;;;;;;;;26.11;49.39;95517.47;10364407;28;2091;-67
2023/07/11 13:37:44;;;;;;;;;;;;;;;26.11;49.32;95528.88;10379735;28;1943;-66
2023/07/11 13:42:44;;;;;;;;;;;;;;;26.12;49.33;95525.13;10369049;28;4513;-67
2023/07/11 13:47:44;;;;;;;;;;;;;;;26.12;49.29;95506.53;10386333;28;2189;-66
2023/07/11 13:52:48;;;;;;;;;;;;;;;26.12;49.15;95508.41;10373050;28;1961;-67
2023/07/11 13:57:48;;;;;;;;;;;;;;;26.13;49.28;95509.97;10388912;28;2088;-67
2023/07/11 14:02:48;;;;;;;;;;;;;;;26.11;49.12;95507.63;10384804;28;1905;-67
2023/07/11 14:07:49;;;;;;;;;;;;;;;26.12;49.39;95503.88;10386828;28;2023;-67
2023/07/11 14:12:50;;;;;;;;;;;;;;;26.12;49.19;95497.78;10367900;28;1987;-67
2023/07/11 14:17:50;;;;;;;;;;;;;;;26.14;49.49;95496.38;10391409;28;2306;-65
2023/07/11 14:22:51;;;;;;;;;;;;;;;26.14;49.34;95491.06;10386377;28;2003;-66
2023/07/11 14:27:51;;;;;;;;;;;;;;;26.16;49.57;95472.13;10385733;28;2138;-67
2023/07/11 14:32:51;;;;;;;;;;;;;;;26.16;49.44;95466.81;10389040;28;2054;-66
2023/07/11 14:37:52;;;;;;;;;;;;;;;26.17;49.33;95468.41;10381622;28;1916;-65
2023/07/11 14:42:52;;;;;;;;;;;;;;;26.17;49.33;95476.38;10387506;28;4689;-65
2023/07/11 14:47:53;;;;;;;;;;;;;;;26.17;49.38;95457.78;10384004;28;1927;-66
2023/07/11 14:52:54;;;;;;;;;;;;;;;26.17;49.48;95447.16;10389883;28;1949;-66
2023/07/11 14:57:55;;;;;;;;;;;;;;;26.17;49.28;95437.28;10386821;28;1958;-65
2023/07/11 15:02:55;;;;;;;;;;;;;;;26.19;49.56;95440.44;10384214;28;1962;-67
2023/07/11 15:07:56;;;;;;;;;;;;;;;26.19;49.50;95436.97;10384849;28;1902;-67
2023/07/11 15:12:56;;;;;;;;;;;;;;;26.19;49.50;95426.34;10384107;28;1984;-67
2023/07/11 15:17:57;;;;;;;;;;;;;;;26.20;49.54;95430.56;10389607;28;1968;-66
2023/07/11 15:22:57;;;;;;;;;;;;;;;26.19;49.54;95418.38;10387536;28;2058;-66
2023/07/11 15:27:58;;;;;;;;;;;;;;;26.20;49.69;95417.28;10371324;28;2166;-66
2023/07/11 15:32:58;;;;;;;;;;;;;;;26.19;49.33;95408.56;10385119;28;2050;-66
2023/07/11 15:38:01;;;;;;;;;;;;;;;26.20;49.55;95401.34;10384436;28;2239;-66
2023/07/11 15:43:01;;;;;;;;;;;;;;;26.20;49.20;95393.38;10387869;28;4573;-66
2023/07/11 15:48:01;;;;;;;;;;;;;;;26.20;49.26;95404.00;10386721;28;2067;-67
2023/07/11 15:53:01;;;;;;;;;;;;;;;26.17;49.29;95399.31;10390052;28;2089;-66
2023/07/11 15:58:02;;;;;;;;;;;;;;;26.19;49.13;95386.50;10388548;28;2007;-66
2023/07/11 16:03:02;;;;;;;;;;;;;;;26.20;49.00;95382.75;10384246;28;2106;-67
2023/07/11 16:08:03;;;;;;;;;;;;;;;26.19;49.21;95381.19;10386533;28;1904;-66
2023/07/11 16:13:04;;;;;;;;;;;;;;;26.19;49.18;95371.34;10382225;28;2171;-65
2023/07/11 16:18:08;;;;;;;;;;;;;;;26.20;49.47;95367.59;10401092;28;2084;-66
2023/07/11 16:23:22;;;;;;;;;;;;;;;26.20;49.03;95375.56;10380679;28;1895;-66
2023/07/11 16:28:23;;;;;;;;;;;;;;;26.21;49.34;95379.00;10401452;28;1999;-66
2023/07/11 16:33:24;;;;;;;;;;;;;;;26.21;49.48;95363.84;10407298;28;2643;-66
2023/07/11 16:38:28;;;;;;;;;;;;;;;26.22;49.33;95359.28;10399344;28;1923;-65
2023/07/11 16:43:29;;;;;;;;;;;;;;;26.22;49.40;95357.41;10396416;28;4656;-66
2023/07/11 16:48:29;;;;;;;;;;;;;;;26.23;49.24;95358.22;10394959;28;2059;-66
2023/07/11 16:53:31;;;;;;;;;;;;;;;26.23;49.28;95342.25;10399216;28;1961;-65
2023/07/11 16:58:41;;;;;;;;;;;;;;;26.24;49.27;95338.50;10380226;28;1976;-66
2023/07/11 17:03:42;;;;;;;;;;;;;;;26.24;49.40;95326.00;10377678;28;1924;-67
2023/07/11 17:08:42;;;;;;;;;;;;;;;26.25;49.42;95332.09;10396736;28;2007;-66
2023/07/11 17:13:42;;;;;;;;;;;;;;;26.25;49.30;95326.78;10396984;28;2013;-67
2023/07/11 17:18:42;;;;;;;;;;;;;;;26.25;49.43;95316.94;10402632;28;1921;-65
2023/07/11 17:23:43;;;;;;;;;;;;;;;26.26;49.26;95328.31;10404321;28;2077;-67
2023/07/11 17:28:43;;;;;;;;;;;;;;;26.27;49.22;95343.19;10402604;28;2418;-66
2023/07/11 17:33:43;;;;;;;;;;;;;;;26.27;49.21;95335.22;10402543;28;2134;-66
2023/07/11 17:38:45;;;;;;;;;;;;;;;26.29;49.06;95333.00;10405229;28;2245;-67
2023/07/11 17:43:45;;;;;;;;;;;;;;;26.28;49.13;95337.53;10403400;28;4601;-66
2023/07/11 17:48:46;;;;;;;;;;;;;;;26.29;49.30;95327.69;10404979;28;1973;-67
2023/07/11 17:53:47;;;;;;;;;;;;;;;26.29;49.38;95327.69;10404465;28;1918;-68
2023/07/11 17:58:47;;;;;;;;;;;;;;;26.30;49.67;95326.59;10403495;28;1913;-68
2023/07/11 18:03:47;;;;;;;;;;;;;;;26.32;49.56;95321.72;10403304;28;1946;-70
2023/07/11 18:08:48;;;;;;;;;;;;;;;26.33;49.37;95307.34;10406448;28;1969;-67
2023/07/11 18:13:48;;;;;;;;;;;;;;;26.32;49.67;95289.84;10380625;28;1934;-70
2023/07/11 18:18:48;;;;;;;;;;;;;;;26.38;49.30;95272.63;10401762;28;1975;-65
2023/07/11 18:23:49;;;;;;;;;;;;;;;26.40;49.21;95265.09;10401177;28;2369;-67
2023/07/11 18:28:49;;;;;;;;;;;;;;;26.41;49.43;95240.09;10401205;28;1981;-70
2023/07/11 18:33:49;;;;;;;;;;;;;;;26.44;49.32;95234.16;10403350;28;2170;-63
2023/07/11 18:38:50;;;;;;;;;;;;;;;26.41;49.48;95232.13;10405618;28;1914;-66
2023/07/11 18:43:50;;;;;;;;;;;;;;;26.42;49.40;95223.06;10401788;28;1961;-61
2023/07/11 18:48:50;;;;;;;;;;;;;;;26.45;49.66;95225.06;10400344;28;2035;-61
2023/07/11 18:53:51;;;;;;;;;;;;;;;26.45;49.44;95220.53;10399709;28;2017;-67
2023/07/11 18:58:51;;;;;;;;;;;;;;;26.46;49.77;95216.00;10398104;28;2211;-67
2023/07/11 19:03:51;;;;;;;;;;;;;;;26.48;49.90;95203.16;10398275;28;2031;-67
2023/07/11 19:08:51;;;;;;;;;;;;;;;26.49;50.23;95223.31;10401334;28;1957;-66
2023/07/11 19:13:52;;;;;;;;;;;;;;;26.49;50.63;95221.44;10398627;28;1899;-67
2023/07/11 19:18:52;;;;;;;;;;;;;;;26.51;50.86;95199.84;10393290;28;1941;-69
2023/07/11 19:23:52;;;;;;;;;;;;;;;26.51;50.66;95192.66;10392630;28;1899;-70
2023/07/11 19:28:53;;;;;;;;;;;;;;;26.52;50.96;95188.88;10390800;28;1954;-69
2023/07/11 19:33:53;;;;;;;;;;;;;;;26.53;50.98;95181.69;10396894;28;1878;-68
2023/07/11 19:38:53;;;;;;;;;;;;;;;26.53;50.93;95173.72;10400569;28;1899;-70
2023/07/11 19:43:54;;;;;;;;;;;;;;;26.54;50.79;95183.25;10403513;28;1626;-70
2023/07/11 19:48:54;;;;;;;;;;;;;;;26.56;51.42;95186.38;10402825;28;1910;-70
2023/07/11 19:53:54;;;;;;;;;;;;;;;26.56;51.17;95189.03;10406035;28;1618;-70
2023/07/11 19:58:56;;;;;;;;;;;;;;;26.57;51.19;95178.06;10405567;28;1508;-72
2023/07/11 20:03:56;;;;;;;;;;;;;;;26.58;51.28;95168.22;10402710;28;1414;-73
2023/07/11 20:08:57;;;;;;;;;;;;;;;26.60;51.29;95179.28;10406882;28;1890;-69
2023/07/11 20:13:57;;;;;;;;;;;;;;;26.61;51.66;95175.53;10407124;28;1902;-69
2023/07/11 20:18:57;;;;;;;;;;;;;;;26.69;50.40;95187.97;10401462;28;2317;-67
2023/07/11 20:24:03;;;;;;;;;;;;;;;26.68;44.00;95173.13;10379750;28;1895;-62
2023/07/11 20:29:04;;;;;;;;;;;;;;;26.63;41.47;95173.31;10397009;28;1955;-65
2023/07/11 20:34:04;;;;;;;;;;;;;;;26.64;39.99;95182.84;10373029;28;1978;-66
2023/07/11 20:39:05;;;;;;;;;;;;;;;26.67;39.21;95154.84;10399517;28;1910;-70
2023/07/11 20:44:05;;;;;;;;;;;;;;;26.58;39.82;95150.34;10399161;28;5010;-68
2023/07/11 20:49:07;;;;;;;;;;;;;;;26.54;40.11;95151.34;10394479;28;2353;-69
2023/07/11 20:54:08;;;;;;;;;;;;;;;26.66;40.14;95170.03;10378890;28;1927;-67
2023/07/11 20:59:12;;;;;;;;;;;;;;;26.63;40.69;95163.47;10394813;28;2027;-69
2023/07/11 21:04:12;;;;;;;;;;;;;;;26.65;40.92;95168.44;10396360;28;1932;-67
2023/07/11 21:09:13;;;;;;;;;;;;;;;26.65;41.08;95163.13;10393702;28;1997;-73
2023/07/11 21:14:14;;;;;;;;;;;;;;;26.69;41.35;95157.97;10395249;28;2050;-70
2023/07/11 21:19:22;;;;;;;;;;;;;;;26.62;42.02;95155.81;10394694;28;1992;-69
2023/07/11 21:24:22;;;;;;;;;;;;;;;26.66;41.93;95178.00;10394910;28;2070;-68
2023/07/11 21:29:22;;;;;;;;;;;;;;;26.58;42.91;95187.56;10396181;28;1947;-67
2023/07/11 21:34:23;;;;;;;;;;;;;;;26.61;42.62;95212.75;10399505;28;1944;-68
2023/07/11 21:39:23;;;;;;;;;;;;;;;26.63;42.62;95247.75;10400589;28;2333;-68
2023/07/11 21:44:23;;;;;;;;;;;;;;;26.82;42.27;95436.94;10399702;28;1867;-68
2023/07/11 21:49:24;;;;;;;;;;;;;;;26.72;42.66;95635.94;10394452;28;2018;-68
2023/07/11 21:54:24;;;;;;;;;;;;;;;26.61;43.21;95592.91;10363254;28;1953;-68
2023/07/11 21:59:24;;;;;;;;;;;;;;;26.59;43.45;95638.44;10391730;28;1940;-68
2023/07/11 22:04:24;;;;;;;;;;;;;;;26.58;43.47;95655.47;10397081;28;1897;-68
2023/07/11 22:09:25;;;;;;;;;;;;;;;26.57;43.74;95714.28;10396960;28;2234;-68
2023/07/11 22:14:25;;;;;;;;;;;;;;;26.55;44.02;95725.22;10399827;28;1891;-68
2023/07/11 22:19:25;;;;;;;;;;;;;;;26.55;44.07;95740.38;10395462;28;1955;-68
2023/07/11 22:24:25;;;;;;;;;;;;;;;26.54;44.23;95765.41;10404534;28;1976;-68
2023/07/11 22:29:26;;;;;;;;;;;;;;;26.54;44.36;95800.75;10388397;28;1942;-68
2023/07/11 22:34:26;;;;;;;;;;;;;;;26.54;44.57;95807.94;10402559;28;1918;-68
2023/07/11 22:39:26;;;;;;;;;;;;;;;26.55;44.81;95799.66;10402426;28;2001;-68
2023/07/11 22:44:26;;;;;;;;;;;;;;;26.55;44.75;95798.88;10403010;28;4458;-68
2023/07/11 22:49:27;;;;;;;;;;;;;;;26.55;45.00;95796.22;10398121;28;1991;-68
2023/07/11 22:54:27;;;;;;;;;;;;;;;26.56;45.28;95787.91;10402348;28;1934;-67
2023/07/11 22:59:27;;;;;;;;;;;;;;;26.58;45.42;95808.91;10404941;28;1540;-67
2023/07/11 23:04:28;;;;;;;;;;;;;;;26.58;45.47;95788.38;10394936;28;1879;-69
2023/07/11 23:09:28;;;;;;;;;;;;;;;26.57;45.31;95794.81;10400802;28;2366;-67
2023/07/11 23:14:28;;;;;;;;;;;;;;;26.59;45.51;95821.09;10398439;28;1951;-67
2023/07/11 23:19:28;;;;;;;;;;;;;;;26.58;45.59;95763.69;10403307;28;2133;-63
2023/07/11 23:24:29;;;;;;;;;;;;;;;26.57;45.63;95748.81;10403572;28;2006;-68
2023/07/11 23:29:29;;;;;;;;;;;;;;;26.58;45.65;95729.91;10403890;28;1971;-68
2023/07/11 23:34:29;;;;;;;;;;;;;;;26.58;45.68;95753.06;10400968;28;1945;-68
2023/07/11 23:39:29;;;;;;;;;;;;;;;26.59;45.81;95722.72;10405560;28;1949;-68
2023/07/11 23:44:30;;;;;;;;;;;;;;;26.59;45.71;95720.06;10397154;28;1887;-70
2023/07/11 23:49:30;;;;;;;;;;;;;;;26.25;48.73;95701.44;10399694;28;1906;-68
2023/07/11 23:54:30;;;;;;;;;;;;;;;26.18;49.14;95688.59;10399019;28;1925;-68
2023/07/11 23:59:30;;;;;;;;;;;;;;;26.13;49.94;95675.44;10400685;28;1867;-67
